Belize, Belize

5:21 PM CST on April 25, 2015 (GMT -0600)
Astrum Helicopters - Cisco Base | | Change Station
CLOSE
Current Station
Personal Weather Station
Location: Belize City, BZ
Elevation: 3 ft
Nearby Weather Stations

Elev 3 ft 17.50 °N, 88.23 °W | Updated 16 seconds ago

Clear
Clear
84.6 °F
Feels Like 93 °F
N
4.9
Wind Variable Wind from ESE
Gusts 9.0 mph

Today
High -- | Low -- °F
--% Chance of Precip.
Yesterday
High -- | Low -- °F
Precip. -- in
5:30 AM 6:11 PM
Waxing Crescent, 50% visible
Pressure 29.80 in
Visibility -9999.0 miles
Clouds
Heat Index 93 °F
Dew Point 75 °F
Humidity 73%
Rainfall 0.00 in
Snow Depth Not available.
UV Not available.
Pollen Not available.
Air Quality Not available.
Flu Activity Not available.
METAR MZBZ 252300Z 10006KT CAVOK 31/23 A2980 Q1009 NOSIG RMK FU-NE/W

More Conditions Fewer Conditions

Pressure 29.80 in
Visibility -9999.0 miles
Clouds
Heat Index 93 °F
Dew Point 75 °F
Humidity 73%
Rainfall 0.00 in
Snow Depth Not available.
UV Not available.
Pollen Not available.
Air Quality Not available.
Flu Activity Not available.
METAR MZBZ 252300Z 10006KT CAVOK 31/23 A2980 Q1009 NOSIG RMK FU-NE/W

More Conditions Fewer Conditions

10-Day Weather Forecast

Almanac

Astronomy

Apr. 25, 2015 Rise Set
Actual Time
Civil Twilight
Nautical Twilight
Astronomical Twilight
Moon
Length of Visible Light
Length of Day
Tomorrow will be .
, % of the Moon is Illuminated

Today's Extremes

Country Highs Country Lows

Community

WunderPhotos

Upload Photos

1,816,845 photos uploaded!

WunderBlogs® & News

Nearby

Air Quality

  Air Quality AQ Index Pollutant
Not available.

Snow Depth

Station Depth Elevation

Earthquake Activity

City Distance Mag. Time & Date
Minimum magnitude displayed is 2.5.

Coastal Water Temperatures

Place Temperature

Stations

Nearby Weather Stations

Station Location Temp. Windchill Dew Point Humidity Wind Precip. Elev Updated Type